sensor_id;sensor_type;location;lat;lon;timestamp;temperature;humidity
55812;DHT22;41742;52.048;6.092;2022-11-23T00:01:21;7.60;99.90
55812;DHT22;41742;52.048;6.092;2022-11-23T00:03:49;7.70;99.90
55812;DHT22;41742;52.048;6.092;2022-11-23T00:06:16;7.60;99.90
55812;DHT22;41742;52.048;6.092;2022-11-23T00:08:42;7.60;99.90
55812;DHT22;41742;52.048;6.092;2022-11-23T00:11:08;7.60;99.90
55812;DHT22;41742;52.048;6.092;2022-11-23T00:13:34;7.70;99.90
55812;DHT22;41742;52.048;6.092;2022-11-23T00:16:03;7.70;99.90
55812;DHT22;41742;52.048;6.092;2022-11-23T00:18:29;7.70;99.90
55812;DHT22;41742;52.048;6.092;2022-11-23T00:20:55;7.70;99.90
55812;DHT22;41742;52.048;6.092;2022-11-23T00:23:20;7.70;99.90
55812;DHT22;41742;52.048;6.092;2022-11-23T00:25:46;7.70;99.90
55812;DHT22;41742;52.048;6.092;2022-11-23T00:28:11;7.70;99.90
55812;DHT22;41742;52.048;6.092;2022-11-23T00:30:37;7.70;99.90
55812;DHT22;41742;52.048;6.092;2022-11-23T00:33:04;7.70;99.90
55812;DHT22;41742;52.048;6.092;2022-11-23T00:35:30;7.70;99.90
55812;DHT22;41742;52.048;6.092;2022-11-23T00:37:55;7.70;99.90
55812;DHT22;41742;52.048;6.092;2022-11-23T00:40:21;7.70;99.90
55812;DHT22;41742;52.048;6.092;2022-11-23T00:42:47;7.70;99.90
55812;DHT22;41742;52.048;6.092;2022-11-23T00:45:12;7.70;99.90
55812;DHT22;41742;52.048;6.092;2022-11-23T00:47:38;7.70;99.90
55812;DHT22;41742;52.048;6.092;2022-11-23T00:50:04;7.80;99.90
55812;DHT22;41742;52.048;6.092;2022-11-23T00:52:29;7.80;99.90
55812;DHT22;41742;52.048;6.092;2022-11-23T00:54:55;7.80;99.90
55812;DHT22;41742;52.048;6.092;2022-11-23T00:57:21;7.70;99.90
55812;DHT22;41742;52.048;6.092;2022-11-23T00:59:46;7.80;99.90
55812;DHT22;41742;52.048;6.092;2022-11-23T01:02:12;7.80;99.90
55812;DHT22;41742;52.048;6.092;2022-11-23T01:04:38;7.80;99.90
55812;DHT22;41742;52.048;6.092;2022-11-23T01:07:04;7.80;99.90
55812;DHT22;41742;52.048;6.092;2022-11-23T01:09:30;7.80;99.90
55812;DHT22;41742;52.048;6.092;2022-11-23T01:11:56;7.90;99.90
55812;DHT22;41742;52.048;6.092;2022-11-23T01:14:23;7.90;99.90
55812;DHT22;41742;52.048;6.092;2022-11-23T01:16:49;7.80;99.90
55812;DHT22;41742;52.048;6.092;2022-11-23T01:19:17;7.90;99.90
55812;DHT22;41742;52.048;6.092;2022-11-23T01:21:46;7.90;99.90
55812;DHT22;41742;52.048;6.092;2022-11-23T01:24:17;7.90;99.90
55812;DHT22;41742;52.048;6.092;2022-11-23T01:26:44;7.90;99.90
55812;DHT22;41742;52.048;6.092;2022-11-23T01:29:10;7.90;99.90
55812;DHT22;41742;52.048;6.092;2022-11-23T01:31:37;7.90;99.90
55812;DHT22;41742;52.048;6.092;2022-11-23T01:34:04;7.90;99.90
55812;DHT22;41742;52.048;6.092;2022-11-23T01:36:33;7.90;99.90
55812;DHT22;41742;52.048;6.092;2022-11-23T01:39:01;7.90;99.90
55812;DHT22;41742;52.048;6.092;2022-11-23T01:41:30;8.00;99.90
55812;DHT22;41742;52.048;6.092;2022-11-23T01:43:56;8.00;99.90
55812;DHT22;41742;52.048;6.092;2022-11-23T01:46:23;8.00;99.90
55812;DHT22;41742;52.048;6.092;2022-11-23T01:51:24;7.90;99.90
55812;DHT22;41742;52.048;6.092;2022-11-23T01:53:53;8.00;99.90
55812;DHT22;41742;52.048;6.092;2022-11-23T01:56:28;8.00;99.90
55812;DHT22;41742;52.048;6.092;2022-11-23T01:58:57;8.00;99.90
55812;DHT22;41742;52.048;6.092;2022-11-23T02:01:26;8.00;99.90
55812;DHT22;41742;52.048;6.092;2022-11-23T02:03:55;8.00;99.90
55812;DHT22;41742;52.048;6.092;2022-11-23T02:06:23;8.00;99.90
55812;DHT22;41742;52.048;6.092;2022-11-23T02:08:50;8.00;99.90
55812;DHT22;41742;52.048;6.092;2022-11-23T02:11:16;8.00;99.90
55812;DHT22;41742;52.048;6.092;2022-11-23T02:13:44;8.00;99.90
55812;DHT22;41742;52.048;6.092;2022-11-23T02:16:10;8.00;99.90
55812;DHT22;41742;52.048;6.092;2022-11-23T02:18:39;8.00;99.90
55812;DHT22;41742;52.048;6.092;2022-11-23T02:21:06;8.00;99.90
55812;DHT22;41742;52.048;6.092;2022-11-23T02:26:24;8.00;99.90
55812;DHT22;41742;52.048;6.092;2022-11-23T02:28:55;8.10;99.90
55812;DHT22;41742;52.048;6.092;2022-11-23T02:31:22;8.00;99.90
55812;DHT22;41742;52.048;6.092;2022-11-23T02:33:51;8.00;99.90
55812;DHT22;41742;52.048;6.092;2022-11-23T02:36:33;8.00;99.90
55812;DHT22;41742;52.048;6.092;2022-11-23T02:39:13;8.00;99.90
55812;DHT22;41742;52.048;6.092;2022-11-23T02:46:42;8.00;99.90
55812;DHT22;41742;52.048;6.092;2022-11-23T02:49:08;8.00;99.90
55812;DHT22;41742;52.048;6.092;2022-11-23T02:51:33;8.00;99.90
55812;DHT22;41742;52.048;6.092;2022-11-23T02:54:01;8.00;99.90
55812;DHT22;41742;52.048;6.092;2022-11-23T02:56:27;8.00;99.90
55812;DHT22;41742;52.048;6.092;2022-11-23T02:58:52;8.00;99.90
55812;DHT22;41742;52.048;6.092;2022-11-23T03:01:18;8.00;99.90
55812;DHT22;41742;52.048;6.092;2022-11-23T03:03:45;8.00;99.90
55812;DHT22;41742;52.048;6.092;2022-11-23T03:06:11;8.00;99.90
55812;DHT22;41742;52.048;6.092;2022-11-23T03:08:36;8.00;99.90
55812;DHT22;41742;52.048;6.092;2022-11-23T03:11:02;8.00;99.90
55812;DHT22;41742;52.048;6.092;2022-11-23T03:13:29;8.00;99.90
55812;DHT22;41742;52.048;6.092;2022-11-23T03:15:55;8.00;99.90
55812;DHT22;41742;52.048;6.092;2022-11-23T03:18:25;8.00;99.90
55812;DHT22;41742;52.048;6.092;2022-11-23T03:20:51;7.90;99.90
55812;DHT22;41742;52.048;6.092;2022-11-23T03:23:17;8.00;99.90
55812;DHT22;41742;52.048;6.092;2022-11-23T03:25:43;7.90;99.90
55812;DHT22;41742;52.048;6.092;2022-11-23T03:28:10;7.90;99.90
55812;DHT22;41742;52.048;6.092;2022-11-23T03:30:36;8.00;99.90
55812;DHT22;41742;52.048;6.092;2022-11-23T03:33:04;7.90;99.90
55812;DHT22;41742;52.048;6.092;2022-11-23T03:35:29;7.90;99.90
55812;DHT22;41742;52.048;6.092;2022-11-23T03:38:15;7.90;99.90
55812;DHT22;41742;52.048;6.092;2022-11-23T03:40:45;7.90;99.90
55812;DHT22;41742;52.048;6.092;2022-11-23T03:43:38;7.90;99.90
55812;DHT22;41742;52.048;6.092;2022-11-23T03:46:04;7.90;99.90
55812;DHT22;41742;52.048;6.092;2022-11-23T03:48:29;7.90;99.90
55812;DHT22;41742;52.048;6.092;2022-11-23T03:50:56;7.90;99.90
55812;DHT22;41742;52.048;6.092;2022-11-23T03:53:21;7.90;99.90
55812;DHT22;41742;52.048;6.092;2022-11-23T03:55:47;7.80;99.90
55812;DHT22;41742;52.048;6.092;2022-11-23T03:58:13;7.80;99.90
55812;DHT22;41742;52.048;6.092;2022-11-23T04:00:40;7.80;99.90
55812;DHT22;41742;52.048;6.092;2022-11-23T04:03:06;7.80;99.90
55812;DHT22;41742;52.048;6.092;2022-11-23T04:05:50;7.80;99.90
55812;DHT22;41742;52.048;6.092;2022-11-23T04:08:34;7.80;99.90
55812;DHT22;41742;52.048;6.092;2022-11-23T04:11:04;7.80;99.90
55812;DHT22;41742;52.048;6.092;2022-11-23T04:13:36;7.80;99.90
55812;DHT22;41742;52.048;6.092;2022-11-23T04:16:02;7.80;99.90
55812;DHT22;41742;52.048;6.092;2022-11-23T04:18:27;7.80;99.90
55812;DHT22;41742;52.048;6.092;2022-11-23T04:20:53;7.80;99.90
55812;DHT22;41742;52.048;6.092;2022-11-23T04:23:19;7.80;99.90
55812;DHT22;41742;52.048;6.092;2022-11-23T04:25:47;7.80;99.90
55812;DHT22;41742;52.048;6.092;2022-11-23T04:28:13;7.80;99.90
55812;DHT22;41742;52.048;6.092;2022-11-23T04:30:38;7.80;99.90
55812;DHT22;41742;52.048;6.092;2022-11-23T04:33:05;7.80;99.90
55812;DHT22;41742;52.048;6.092;2022-11-23T04:35:31;7.80;99.90
55812;DHT22;41742;52.048;6.092;2022-11-23T04:37:58;7.80;99.90
55812;DHT22;41742;52.048;6.092;2022-11-23T04:40:26;7.80;99.90
55812;DHT22;41742;52.048;6.092;2022-11-23T04:42:56;7.80;99.90
55812;DHT22;41742;52.048;6.092;2022-11-23T04:45:23;7.80;99.90
55812;DHT22;41742;52.048;6.092;2022-11-23T04:47:49;7.80;99.90
55812;DHT22;41742;52.048;6.092;2022-11-23T04:50:15;7.80;99.90
55812;DHT22;41742;52.048;6.092;2022-11-23T04:52:45;7.80;99.90
55812;DHT22;41742;52.048;6.092;2022-11-23T04:55:16;7.80;99.90
55812;DHT22;41742;52.048;6.092;2022-11-23T04:57:49;7.80;99.90
55812;DHT22;41742;52.048;6.092;2022-11-23T05:00:16;7.80;99.90
55812;DHT22;41742;52.048;6.092;2022-11-23T05:02:41;7.80;99.90
55812;DHT22;41742;52.048;6.092;2022-11-23T05:05:14;7.80;99.90
55812;DHT22;41742;52.048;6.092;2022-11-23T05:07:40;7.80;99.90
55812;DHT22;41742;52.048;6.092;2022-11-23T05:10:06;7.80;99.90
55812;DHT22;41742;52.048;6.092;2022-11-23T05:12:34;7.80;99.90
55812;DHT22;41742;52.048;6.092;2022-11-23T05:15:02;7.80;99.90
55812;DHT22;41742;52.048;6.092;2022-11-23T05:17:33;7.80;99.90
55812;DHT22;41742;52.048;6.092;2022-11-23T05:19:59;7.80;99.90
55812;DHT22;41742;52.048;6.092;2022-11-23T05:22:26;7.80;99.90
55812;DHT22;41742;52.048;6.092;2022-11-23T05:24:53;7.80;99.90
55812;DHT22;41742;52.048;6.092;2022-11-23T05:27:21;7.80;99.90
55812;DHT22;41742;52.048;6.092;2022-11-23T05:29:47;7.80;99.90
55812;DHT22;41742;52.048;6.092;2022-11-23T05:32:13;7.80;99.90
55812;DHT22;41742;52.048;6.092;2022-11-23T05:34:38;7.80;99.90
55812;DHT22;41742;52.048;6.092;2022-11-23T05:37:05;7.80;99.90
55812;DHT22;41742;52.048;6.092;2022-11-23T05:39:30;7.80;99.90
55812;DHT22;41742;52.048;6.092;2022-11-23T05:41:57;7.80;99.90
55812;DHT22;41742;52.048;6.092;2022-11-23T05:44:35;7.80;99.90
55812;DHT22;41742;52.048;6.092;2022-11-23T05:47:02;7.80;99.90
55812;DHT22;41742;52.048;6.092;2022-11-23T05:49:31;7.80;99.90
55812;DHT22;41742;52.048;6.092;2022-11-23T05:51:57;7.80;99.90
55812;DHT22;41742;52.048;6.092;2022-11-23T05:54:23;7.80;99.90
55812;DHT22;41742;52.048;6.092;2022-11-23T05:56:58;7.80;99.90
55812;DHT22;41742;52.048;6.092;2022-11-23T05:59:34;7.80;99.90
55812;DHT22;41742;52.048;6.092;2022-11-23T06:02:01;7.90;99.90
55812;DHT22;41742;52.048;6.092;2022-11-23T06:04:30;7.80;99.90
55812;DHT22;41742;52.048;6.092;2022-11-23T06:06:57;7.90;99.90
55812;DHT22;41742;52.048;6.092;2022-11-23T06:09:27;7.90;99.90
55812;DHT22;41742;52.048;6.092;2022-11-23T06:11:54;7.80;99.90
55812;DHT22;41742;52.048;6.092;2022-11-23T06:14:20;7.90;99.90
55812;DHT22;41742;52.048;6.092;2022-11-23T06:16:46;7.90;99.90
55812;DHT22;41742;52.048;6.092;2022-11-23T06:19:21;7.90;99.90
55812;DHT22;41742;52.048;6.092;2022-11-23T06:21:47;7.90;99.90
55812;DHT22;41742;52.048;6.092;2022-11-23T06:24:13;7.90;99.90
55812;DHT22;41742;52.048;6.092;2022-11-23T06:26:39;7.80;99.90
55812;DHT22;41742;52.048;6.092;2022-11-23T06:29:05;7.80;99.90
55812;DHT22;41742;52.048;6.092;2022-11-23T06:31:32;7.80;99.90
55812;DHT22;41742;52.048;6.092;2022-11-23T06:33:58;7.80;99.90
55812;DHT22;41742;52.048;6.092;2022-11-23T06:36:23;7.90;99.90
55812;DHT22;41742;52.048;6.092;2022-11-23T06:38:50;7.90;99.90
55812;DHT22;41742;52.048;6.092;2022-11-23T06:41:21;7.80;99.90
55812;DHT22;41742;52.048;6.092;2022-11-23T06:43:47;7.80;99.90
55812;DHT22;41742;52.048;6.092;2022-11-23T06:46:19;7.80;99.90
55812;DHT22;41742;52.048;6.092;2022-11-23T06:48:46;7.80;99.90
55812;DHT22;41742;52.048;6.092;2022-11-23T06:51:14;7.80;99.90
55812;DHT22;41742;52.048;6.092;2022-11-23T06:53:40;7.70;99.90
55812;DHT22;41742;52.048;6.092;2022-11-23T06:56:07;7.70;99.90
55812;DHT22;41742;52.048;6.092;2022-11-23T06:58:34;7.80;99.90
55812;DHT22;41742;52.048;6.092;2022-11-23T07:01:05;7.70;99.90
55812;DHT22;41742;52.048;6.092;2022-11-23T07:03:36;7.70;99.90
55812;DHT22;41742;52.048;6.092;2022-11-23T07:06:09;7.80;99.90
55812;DHT22;41742;52.048;6.092;2022-11-23T07:08:36;7.70;99.90
55812;DHT22;41742;52.048;6.092;2022-11-23T07:11:20;7.80;99.90
55812;DHT22;41742;52.048;6.092;2022-11-23T07:13:46;7.80;99.90
55812;DHT22;41742;52.048;6.092;2022-11-23T07:16:12;7.80;99.90
55812;DHT22;41742;52.048;6.092;2022-11-23T07:18:39;7.70;99.90
55812;DHT22;41742;52.048;6.092;2022-11-23T07:21:05;7.70;99.90
55812;DHT22;41742;52.048;6.092;2022-11-23T07:23:32;7.80;99.90
55812;DHT22;41742;52.048;6.092;2022-11-23T07:25:58;7.80;99.90
55812;DHT22;41742;52.048;6.092;2022-11-23T07:28:23;7.80;99.90
55812;DHT22;41742;52.048;6.092;2022-11-23T07:30:49;7.80;99.90
55812;DHT22;41742;52.048;6.092;2022-11-23T07:33:17;7.70;99.90
55812;DHT22;41742;52.048;6.092;2022-11-23T07:35:44;7.70;99.90
55812;DHT22;41742;52.048;6.092;2022-11-23T07:38:10;7.80;99.90
55812;DHT22;41742;52.048;6.092;2022-11-23T07:40:37;7.70;99.90
55812;DHT22;41742;52.048;6.092;2022-11-23T07:43:04;7.70;99.90
55812;DHT22;41742;52.048;6.092;2022-11-23T07:45:30;7.70;99.90
55812;DHT22;41742;52.048;6.092;2022-11-23T07:48:06;7.70;99.90
55812;DHT22;41742;52.048;6.092;2022-11-23T07:50:33;7.70;99.90
55812;DHT22;41742;52.048;6.092;2022-11-23T07:53:01;7.70;99.90
55812;DHT22;41742;52.048;6.092;2022-11-23T07:55:26;7.70;99.90
55812;DHT22;41742;52.048;6.092;2022-11-23T07:57:53;7.70;99.90
55812;DHT22;41742;52.048;6.092;2022-11-23T08:00:20;7.80;99.90
55812;DHT22;41742;52.048;6.092;2022-11-23T08:02:47;7.70;99.90
55812;DHT22;41742;52.048;6.092;2022-11-23T08:05:13;7.70;99.90
55812;DHT22;41742;52.048;6.092;2022-11-23T08:07:39;7.80;99.90
55812;DHT22;41742;52.048;6.092;2022-11-23T08:10:04;7.80;99.90
55812;DHT22;41742;52.048;6.092;2022-11-23T08:12:30;7.80;99.90
55812;DHT22;41742;52.048;6.092;2022-11-23T08:14:56;7.80;99.90
55812;DHT22;41742;52.048;6.092;2022-11-23T08:17:22;7.80;99.90
55812;DHT22;41742;52.048;6.092;2022-11-23T08:19:47;7.80;99.90
55812;DHT22;41742;52.048;6.092;2022-11-23T08:22:13;7.70;99.90
55812;DHT22;41742;52.048;6.092;2022-11-23T08:24:39;7.70;99.90
55812;DHT22;41742;52.048;6.092;2022-11-23T08:27:04;7.70;99.90
55812;DHT22;41742;52.048;6.092;2022-11-23T08:29:30;7.80;99.90
55812;DHT22;41742;52.048;6.092;2022-11-23T08:31:55;7.80;99.90
55812;DHT22;41742;52.048;6.092;2022-11-23T08:34:21;7.80;99.90
55812;DHT22;41742;52.048;6.092;2022-11-23T08:36:47;7.80;99.90
55812;DHT22;41742;52.048;6.092;2022-11-23T08:39:13;7.80;99.90
55812;DHT22;41742;52.048;6.092;2022-11-23T08:41:39;7.80;99.90
55812;DHT22;41742;52.048;6.092;2022-11-23T08:44:05;7.80;99.90
55812;DHT22;41742;52.048;6.092;2022-11-23T08:46:34;7.80;99.90
55812;DHT22;41742;52.048;6.092;2022-11-23T08:48:59;7.80;99.90
55812;DHT22;41742;52.048;6.092;2022-11-23T08:51:25;7.80;99.90
55812;DHT22;41742;52.048;6.092;2022-11-23T08:53:51;7.90;99.90
55812;DHT22;41742;52.048;6.092;2022-11-23T08:56:16;7.90;99.90
55812;DHT22;41742;52.048;6.092;2022-11-23T08:58:42;7.90;99.90
55812;DHT22;41742;52.048;6.092;2022-11-23T09:01:12;8.00;99.90
55812;DHT22;41742;52.048;6.092;2022-11-23T09:03:39;8.00;99.90
55812;DHT22;41742;52.048;6.092;2022-11-23T09:06:05;8.00;99.90
55812;DHT22;41742;52.048;6.092;2022-11-23T09:08:30;8.10;99.90
55812;DHT22;41742;52.048;6.092;2022-11-23T09:11:00;8.10;99.90
55812;DHT22;41742;52.048;6.092;2022-11-23T09:13:26;8.20;99.90
55812;DHT22;41742;52.048;6.092;2022-11-23T09:15:57;8.20;99.90
55812;DHT22;41742;52.048;6.092;2022-11-23T09:18:23;8.40;99.90
55812;DHT22;41742;52.048;6.092;2022-11-23T09:20:49;8.40;99.90
55812;DHT22;41742;52.048;6.092;2022-11-23T09:23:14;8.40;99.90
55812;DHT22;41742;52.048;6.092;2022-11-23T09:25:40;8.40;99.90
55812;DHT22;41742;52.048;6.092;2022-11-23T09:28:07;8.50;99.90
55812;DHT22;41742;52.048;6.092;2022-11-23T09:30:33;8.40;99.90
55812;DHT22;41742;52.048;6.092;2022-11-23T09:32:59;8.40;99.90
55812;DHT22;41742;52.048;6.092;2022-11-23T09:35:25;8.40;99.90
55812;DHT22;41742;52.048;6.092;2022-11-23T09:37:55;8.40;99.90
55812;DHT22;41742;52.048;6.092;2022-11-23T09:40:21;8.40;99.90
55812;DHT22;41742;52.048;6.092;2022-11-23T09:45:55;8.40;99.90
55812;DHT22;41742;52.048;6.092;2022-11-23T09:48:40;8.50;99.90
55812;DHT22;41742;52.048;6.092;2022-11-23T09:51:16;8.50;99.90
55812;DHT22;41742;52.048;6.092;2022-11-23T09:54:04;8.50;99.90
55812;DHT22;41742;52.048;6.092;2022-11-23T09:56:35;8.50;99.90
55812;DHT22;41742;52.048;6.092;2022-11-23T09:59:56;8.50;99.90
55812;DHT22;41742;52.048;6.092;2022-11-23T10:01:57;8.50;99.90
55812;DHT22;41742;52.048;6.092;2022-11-23T10:04:24;8.50;99.90
55812;DHT22;41742;52.048;6.092;2022-11-23T10:06:56;8.50;99.90
55812;DHT22;41742;52.048;6.092;2022-11-23T10:09:39;8.50;99.90
55812;DHT22;41742;52.048;6.092;2022-11-23T10:25:47;8.70;99.90
55812;DHT22;41742;52.048;6.092;2022-11-23T10:28:15;8.70;99.90
55812;DHT22;41742;52.048;6.092;2022-11-23T10:30:41;8.70;99.90
55812;DHT22;41742;52.048;6.092;2022-11-23T10:33:27;8.70;99.90
55812;DHT22;41742;52.048;6.092;2022-11-23T10:35:54;8.80;99.90
55812;DHT22;41742;52.048;6.092;2022-11-23T10:38:21;8.90;99.90
55812;DHT22;41742;52.048;6.092;2022-11-23T10:43:27;8.90;99.90
55812;DHT22;41742;52.048;6.092;2022-11-23T10:49:24;9.00;99.90
55812;DHT22;41742;52.048;6.092;2022-11-23T10:54:26;9.10;99.90
55812;DHT22;41742;52.048;6.092;2022-11-23T10:56:53;9.20;99.90
55812;DHT22;41742;52.048;6.092;2022-11-23T10:59:26;9.20;99.90
55812;DHT22;41742;52.048;6.092;2022-11-23T11:02:00;9.20;99.90
55812;DHT22;41742;52.048;6.092;2022-11-23T11:04:26;9.20;99.90
55812;DHT22;41742;52.048;6.092;2022-11-23T11:06:51;9.20;99.90
55812;DHT22;41742;52.048;6.092;2022-11-23T11:09:33;9.30;99.90
55812;DHT22;41742;52.048;6.092;2022-11-23T11:11:59;9.40;99.90
55812;DHT22;41742;52.048;6.092;2022-11-23T11:14:25;9.40;99.90
55812;DHT22;41742;52.048;6.092;2022-11-23T11:16:56;9.50;99.90
55812;DHT22;41742;52.048;6.092;2022-11-23T11:19:33;9.50;99.90
55812;DHT22;41742;52.048;6.092;2022-11-23T11:22:01;9.50;99.90
55812;DHT22;41742;52.048;6.092;2022-11-23T11:24:41;9.50;99.90
55812;DHT22;41742;52.048;6.092;2022-11-23T11:27:20;9.60;99.90
55812;DHT22;41742;52.048;6.092;2022-11-23T11:29:52;9.60;99.90
55812;DHT22;41742;52.048;6.092;2022-11-23T11:32:23;9.70;99.90
55812;DHT22;41742;52.048;6.092;2022-11-23T11:37:45;9.70;99.90
55812;DHT22;41742;52.048;6.092;2022-11-23T11:40:27;9.80;99.90
55812;DHT22;41742;52.048;6.092;2022-11-23T11:43:01;9.90;99.90
55812;DHT22;41742;52.048;6.092;2022-11-23T11:45:32;9.90;99.90
55812;DHT22;41742;52.048;6.092;2022-11-23T11:48:13;9.90;99.90
55812;DHT22;41742;52.048;6.092;2022-11-23T11:53:16;10.00;99.90
55812;DHT22;41742;52.048;6.092;2022-11-23T11:58:38;10.10;99.90
55812;DHT22;41742;52.048;6.092;2022-11-23T12:01:26;10.10;99.90
55812;DHT22;41742;52.048;6.092;2022-11-23T12:04:01;10.10;99.90
55812;DHT22;41742;52.048;6.092;2022-11-23T12:07:35;10.20;99.90
55812;DHT22;41742;52.048;6.092;2022-11-23T12:09:32;10.20;99.90
55812;DHT22;41742;52.048;6.092;2022-11-23T12:11:59;10.20;99.90
55812;DHT22;41742;52.048;6.092;2022-11-23T12:14:25;10.30;99.90
55812;DHT22;41742;52.048;6.092;2022-11-23T12:17:09;10.30;99.90
55812;DHT22;41742;52.048;6.092;2022-11-23T12:20:01;10.30;99.90
55812;DHT22;41742;52.048;6.092;2022-11-23T12:30:50;10.20;99.90
55812;DHT22;41742;52.048;6.092;2022-11-23T12:33:56;10.10;99.90
55812;DHT22;41742;52.048;6.092;2022-11-23T12:44:54;11.10;99.90
55812;DHT22;41742;52.048;6.092;2022-11-23T12:47:38;11.00;99.90
55812;DHT22;41742;52.048;6.092;2022-11-23T12:50:54;10.80;99.90
55812;DHT22;41742;52.048;6.092;2022-11-23T12:53:33;10.70;99.90
55812;DHT22;41742;52.048;6.092;2022-11-23T12:56:25;10.50;99.90
55812;DHT22;41742;52.048;6.092;2022-11-23T12:58:57;10.40;99.90
55812;DHT22;41742;52.048;6.092;2022-11-23T13:01:25;10.30;99.90
55812;DHT22;41742;52.048;6.092;2022-11-23T13:03:58;10.30;99.90
55812;DHT22;41742;52.048;6.092;2022-11-23T13:23:13;9.90;99.90
55812;DHT22;41742;52.048;6.092;2022-11-23T13:25:39;9.80;99.90
55812;DHT22;41742;52.048;6.092;2022-11-23T13:28:30;9.80;99.90
55812;DHT22;41742;52.048;6.092;2022-11-23T13:33:40;9.80;99.90
55812;DHT22;41742;52.048;6.092;2022-11-23T13:36:10;9.70;99.90
55812;DHT22;41742;52.048;6.092;2022-11-23T13:38:41;9.70;99.90
55812;DHT22;41742;52.048;6.092;2022-11-23T13:44:29;9.70;99.90
55812;DHT22;41742;52.048;6.092;2022-11-23T13:49:30;9.70;99.90
55812;DHT22;41742;52.048;6.092;2022-11-23T13:52:21;9.60;99.90
55812;DHT22;41742;52.048;6.092;2022-11-23T13:57:43;9.60;99.90
55812;DHT22;41742;52.048;6.092;2022-11-23T14:00:47;9.50;99.90
55812;DHT22;41742;52.048;6.092;2022-11-23T14:08:39;9.30;99.90
55812;DHT22;41742;52.048;6.092;2022-11-23T14:11:11;9.30;99.90
55812;DHT22;41742;52.048;6.092;2022-11-23T14:13:40;9.30;99.90
55812;DHT22;41742;52.048;6.092;2022-11-23T14:16:11;9.30;99.90
55812;DHT22;41742;52.048;6.092;2022-11-23T14:18:55;9.30;99.90
55812;DHT22;41742;52.048;6.092;2022-11-23T14:21:25;9.30;99.90
55812;DHT22;41742;52.048;6.092;2022-11-23T14:24:53;9.40;99.90
55812;DHT22;41742;52.048;6.092;2022-11-23T14:33:09;9.30;99.90
55812;DHT22;41742;52.048;6.092;2022-11-23T14:35:48;9.30;99.90
55812;DHT22;41742;52.048;6.092;2022-11-23T14:41:22;9.30;99.90
55812;DHT22;41742;52.048;6.092;2022-11-23T14:43:49;9.20;99.90
55812;DHT22;41742;52.048;6.092;2022-11-23T14:46:22;9.10;99.90
55812;DHT22;41742;52.048;6.092;2022-11-23T14:48:50;9.10;99.90
55812;DHT22;41742;52.048;6.092;2022-11-23T14:51:23;9.10;99.90
55812;DHT22;41742;52.048;6.092;2022-11-23T14:53:55;9.10;99.90
55812;DHT22;41742;52.048;6.092;2022-11-23T14:56:43;9.00;99.90
55812;DHT22;41742;52.048;6.092;2022-11-23T14:59:33;8.90;99.90
55812;DHT22;41742;52.048;6.092;2022-11-23T15:02:34;8.90;99.90
55812;DHT22;41742;52.048;6.092;2022-11-23T15:05:18;8.70;99.90
55812;DHT22;41742;52.048;6.092;2022-11-23T15:08:01;8.70;99.90
55812;DHT22;41742;52.048;6.092;2022-11-23T15:12:54;8.50;99.90
55812;DHT22;41742;52.048;6.092;2022-11-23T15:15:25;8.40;99.90
55812;DHT22;41742;52.048;6.092;2022-11-23T15:17:57;8.40;99.90
55812;DHT22;41742;52.048;6.092;2022-11-23T15:20:27;8.40;99.90
55812;DHT22;41742;52.048;6.092;2022-11-23T15:22:54;8.40;99.90
55812;DHT22;41742;52.048;6.092;2022-11-23T15:25:20;8.30;99.90
55812;DHT22;41742;52.048;6.092;2022-11-23T15:27:47;8.30;99.90
55812;DHT22;41742;52.048;6.092;2022-11-23T15:30:28;8.30;99.90
55812;DHT22;41742;52.048;6.092;2022-11-23T15:33:01;8.20;99.90
55812;DHT22;41742;52.048;6.092;2022-11-23T15:35:32;8.20;99.90
55812;DHT22;41742;52.048;6.092;2022-11-23T15:38:00;8.20;99.90
55812;DHT22;41742;52.048;6.092;2022-11-23T15:40:29;8.20;99.90
55812;DHT22;41742;52.048;6.092;2022-11-23T15:42:56;8.10;99.90
55812;DHT22;41742;52.048;6.092;2022-11-23T15:45:33;8.10;99.90
55812;DHT22;41742;52.048;6.092;2022-11-23T15:48:01;8.00;99.90
55812;DHT22;41742;52.048;6.092;2022-11-23T15:50:26;8.00;99.90
55812;DHT22;41742;52.048;6.092;2022-11-23T15:52:52;8.00;99.90
55812;DHT22;41742;52.048;6.092;2022-11-23T15:55:18;8.00;99.90
55812;DHT22;41742;52.048;6.092;2022-11-23T15:57:51;8.00;99.90
55812;DHT22;41742;52.048;6.092;2022-11-23T16:00:24;8.00;99.90
55812;DHT22;41742;52.048;6.092;2022-11-23T16:02:51;8.00;99.90
55812;DHT22;41742;52.048;6.092;2022-11-23T16:05:21;8.00;99.90
55812;DHT22;41742;52.048;6.092;2022-11-23T16:07:59;8.00;99.90
55812;DHT22;41742;52.048;6.092;2022-11-23T16:13:02;8.00;99.90
55812;DHT22;41742;52.048;6.092;2022-11-23T16:20:46;7.90;99.90
55812;DHT22;41742;52.048;6.092;2022-11-23T16:23:49;7.90;99.90
55812;DHT22;41742;52.048;6.092;2022-11-23T16:26:16;7.90;99.90
55812;DHT22;41742;52.048;6.092;2022-11-23T16:28:56;7.90;99.90
55812;DHT22;41742;52.048;6.092;2022-11-23T16:31:35;7.90;99.90
55812;DHT22;41742;52.048;6.092;2022-11-23T16:34:01;7.90;99.90
55812;DHT22;41742;52.048;6.092;2022-11-23T16:36:28;7.80;99.90
55812;DHT22;41742;52.048;6.092;2022-11-23T16:38:56;7.80;99.90
55812;DHT22;41742;52.048;6.092;2022-11-23T16:41:22;7.80;99.90
55812;DHT22;41742;52.048;6.092;2022-11-23T16:43:51;7.80;99.90
55812;DHT22;41742;52.048;6.092;2022-11-23T16:46:18;7.80;99.90
55812;DHT22;41742;52.048;6.092;2022-11-23T16:48:44;7.80;99.90
55812;DHT22;41742;52.048;6.092;2022-11-23T16:51:10;7.80;99.90
55812;DHT22;41742;52.048;6.092;2022-11-23T16:53:40;7.80;99.90
55812;DHT22;41742;52.048;6.092;2022-11-23T16:56:09;7.80;99.90
55812;DHT22;41742;52.048;6.092;2022-11-23T16:58:37;7.80;99.90
55812;DHT22;41742;52.048;6.092;2022-11-23T17:01:03;7.80;99.90
55812;DHT22;41742;52.048;6.092;2022-11-23T17:03:29;7.80;99.90
55812;DHT22;41742;52.048;6.092;2022-11-23T17:05:55;7.80;99.90
55812;DHT22;41742;52.048;6.092;2022-11-23T17:08:20;7.80;99.90
55812;DHT22;41742;52.048;6.092;2022-11-23T17:10:47;7.80;99.90
55812;DHT22;41742;52.048;6.092;2022-11-23T17:13:22;7.80;99.90
55812;DHT22;41742;52.048;6.092;2022-11-23T17:15:49;7.80;99.90
55812;DHT22;41742;52.048;6.092;2022-11-23T17:18:15;7.80;99.90
55812;DHT22;41742;52.048;6.092;2022-11-23T17:20:42;7.80;99.90
55812;DHT22;41742;52.048;6.092;2022-11-23T17:23:08;7.80;99.90
55812;DHT22;41742;52.048;6.092;2022-11-23T17:25:34;7.80;99.90
55812;DHT22;41742;52.048;6.092;2022-11-23T17:28:00;7.80;99.90
55812;DHT22;41742;52.048;6.092;2022-11-23T17:30:26;7.80;99.90
55812;DHT22;41742;52.048;6.092;2022-11-23T17:32:52;7.80;99.90
55812;DHT22;41742;52.048;6.092;2022-11-23T17:35:18;7.80;99.90
55812;DHT22;41742;52.048;6.092;2022-11-23T17:37:45;7.80;99.90
55812;DHT22;41742;52.048;6.092;2022-11-23T17:40:15;7.80;99.90
55812;DHT22;41742;52.048;6.092;2022-11-23T17:42:42;7.70;99.90
55812;DHT22;41742;52.048;6.092;2022-11-23T17:45:08;7.80;99.90
55812;DHT22;41742;52.048;6.092;2022-11-23T17:47:34;7.80;99.90
55812;DHT22;41742;52.048;6.092;2022-11-23T17:49:59;7.80;99.90
55812;DHT22;41742;52.048;6.092;2022-11-23T17:52:25;7.80;99.90
55812;DHT22;41742;52.048;6.092;2022-11-23T17:54:51;7.70;99.90